sensor_id;sensor_type;location;lat;lon;timestamp;P1;durP1;ratioP1;P2;durP2;ratioP2
46651;SDS011;32377;52.182;5.398;2022-09-12T00:02:00;45.92;;;33.50;;
46651;SDS011;32377;52.182;5.398;2022-09-12T00:04:25;42.10;;;32.40;;
46651;SDS011;32377;52.182;5.398;2022-09-12T00:06:52;45.03;;;33.15;;
46651;SDS011;32377;52.182;5.398;2022-09-12T00:09:17;44.17;;;32.60;;
46651;SDS011;32377;52.182;5.398;2022-09-12T00:11:44;47.17;;;33.00;;
46651;SDS011;32377;52.182;5.398;2022-09-12T00:14:12;44.50;;;34.45;;
46651;SDS011;32377;52.182;5.398;2022-09-12T00:16:39;46.53;;;34.83;;
46651;SDS011;32377;52.182;5.398;2022-09-12T00:19:05;46.00;;;34.58;;
46651;SDS011;32377;52.182;5.398;2022-09-12T00:21:32;50.35;;;36.83;;
46651;SDS011;32377;52.182;5.398;2022-09-12T00:23:59;47.67;;;35.17;;
46651;SDS011;32377;52.182;5.398;2022-09-12T00:26:25;47.33;;;34.05;;
46651;SDS011;32377;52.182;5.398;2022-09-12T00:28:51;49.47;;;35.65;;
46651;SDS011;32377;52.182;5.398;2022-09-12T00:31:18;51.30;;;35.85;;
46651;SDS011;32377;52.182;5.398;2022-09-12T00:33:47;48.25;;;35.28;;
46651;SDS011;32377;52.182;5.398;2022-09-12T00:36:17;49.63;;;35.92;;
46651;SDS011;32377;52.182;5.398;2022-09-12T00:38:45;55.33;;;35.45;;
46651;SDS011;32377;52.182;5.398;2022-09-12T00:43:51;50.72;;;35.90;;
46651;SDS011;32377;52.182;5.398;2022-09-12T00:46:34;53.58;;;36.92;;
46651;SDS011;32377;52.182;5.398;2022-09-12T00:49:03;53.60;;;36.60;;
46651;SDS011;32377;52.182;5.398;2022-09-12T00:51:35;53.63;;;36.53;;
46651;SDS011;32377;52.182;5.398;2022-09-12T00:54:03;52.65;;;37.15;;
46651;SDS011;32377;52.182;5.398;2022-09-12T00:56:34;51.47;;;36.90;;
46651;SDS011;32377;52.182;5.398;2022-09-12T00:59:04;54.97;;;37.72;;
46651;SDS011;32377;52.182;5.398;2022-09-12T01:01:33;53.45;;;36.38;;
46651;SDS011;32377;52.182;5.398;2022-09-12T01:04:00;54.80;;;37.17;;
46651;SDS011;32377;52.182;5.398;2022-09-12T01:06:27;56.33;;;36.40;;
46651;SDS011;32377;52.182;5.398;2022-09-12T01:08:59;50.63;;;35.90;;
46651;SDS011;32377;52.182;5.398;2022-09-12T01:11:29;47.42;;;36.75;;
46651;SDS011;32377;52.182;5.398;2022-09-12T01:13:56;51.95;;;36.58;;
46651;SDS011;32377;52.182;5.398;2022-09-12T01:16:21;48.85;;;35.90;;
46651;SDS011;32377;52.182;5.398;2022-09-12T01:21:24;55.58;;;36.95;;
46651;SDS011;32377;52.182;5.398;2022-09-12T01:29:49;52.45;;;36.78;;
46651;SDS011;32377;52.182;5.398;2022-09-12T01:35:15;49.13;;;35.57;;
46651;SDS011;32377;52.182;5.398;2022-09-12T01:40:41;48.92;;;34.50;;
46651;SDS011;32377;52.182;5.398;2022-09-12T01:43:30;48.00;;;33.83;;
46651;SDS011;32377;52.182;5.398;2022-09-12T01:46:14;49.88;;;34.55;;
46651;SDS011;32377;52.182;5.398;2022-09-12T01:51:23;46.20;;;34.38;;
46651;SDS011;32377;52.182;5.398;2022-09-12T01:54:42;50.38;;;34.33;;
46651;SDS011;32377;52.182;5.398;2022-09-12T01:56:54;49.30;;;33.92;;
46651;SDS011;32377;52.182;5.398;2022-09-12T01:59:27;50.30;;;33.00;;
46651;SDS011;32377;52.182;5.398;2022-09-12T02:02:02;50.33;;;33.67;;
46651;SDS011;32377;52.182;5.398;2022-09-12T02:04:45;48.95;;;34.33;;
46651;SDS011;32377;52.182;5.398;2022-09-12T02:07:19;51.40;;;34.50;;
46651;SDS011;32377;52.182;5.398;2022-09-12T02:09:56;49.42;;;34.70;;
46651;SDS011;32377;52.182;5.398;2022-09-12T02:12:43;50.53;;;35.17;;
46651;SDS011;32377;52.182;5.398;2022-09-12T02:15:12;50.55;;;34.38;;
46651;SDS011;32377;52.182;5.398;2022-09-12T02:17:41;48.30;;;34.60;;
46651;SDS011;32377;52.182;5.398;2022-09-12T02:20:19;51.50;;;34.45;;
46651;SDS011;32377;52.182;5.398;2022-09-12T02:22:51;51.45;;;34.42;;
46651;SDS011;32377;52.182;5.398;2022-09-12T02:25:21;49.58;;;33.47;;
46651;SDS011;32377;52.182;5.398;2022-09-12T02:27:50;49.42;;;34.92;;
46651;SDS011;32377;52.182;5.398;2022-09-12T02:30:20;52.03;;;36.15;;
46651;SDS011;32377;52.182;5.398;2022-09-12T02:32:53;52.45;;;36.50;;
46651;SDS011;32377;52.182;5.398;2022-09-12T02:38:31;56.22;;;36.35;;
46651;SDS011;32377;52.182;5.398;2022-09-12T02:40:53;50.33;;;36.70;;
46651;SDS011;32377;52.182;5.398;2022-09-12T02:43:18;58.42;;;37.28;;
46651;SDS011;32377;52.182;5.398;2022-09-12T02:45:44;54.03;;;37.22;;
46651;SDS011;32377;52.182;5.398;2022-09-12T02:48:12;61.25;;;40.05;;
46651;SDS011;32377;52.182;5.398;2022-09-12T02:50:41;54.58;;;37.00;;
46651;SDS011;32377;52.182;5.398;2022-09-12T02:53:07;57.67;;;37.90;;
46651;SDS011;32377;52.182;5.398;2022-09-12T02:55:34;57.67;;;39.13;;
46651;SDS011;32377;52.182;5.398;2022-09-12T02:58:03;59.45;;;39.13;;
46651;SDS011;32377;52.182;5.398;2022-09-12T03:00:50;54.97;;;38.72;;
46651;SDS011;32377;52.182;5.398;2022-09-12T03:06:29;53.35;;;38.72;;
46651;SDS011;32377;52.182;5.398;2022-09-12T03:09:04;59.42;;;39.55;;
46651;SDS011;32377;52.182;5.398;2022-09-12T03:23:18;62.20;;;41.38;;
46651;SDS011;32377;52.182;5.398;2022-09-12T03:28:49;60.25;;;40.72;;
46651;SDS011;32377;52.182;5.398;2022-09-12T03:31:17;61.22;;;41.47;;
46651;SDS011;32377;52.182;5.398;2022-09-12T03:33:44;58.70;;;41.10;;
46651;SDS011;32377;52.182;5.398;2022-09-12T03:36:14;61.17;;;40.92;;
46651;SDS011;32377;52.182;5.398;2022-09-12T03:38:42;65.38;;;40.17;;
46651;SDS011;32377;52.182;5.398;2022-09-12T03:41:08;62.40;;;42.10;;
46651;SDS011;32377;52.182;5.398;2022-09-12T03:43:33;61.30;;;40.90;;
46651;SDS011;32377;52.182;5.398;2022-09-12T03:45:59;62.83;;;41.67;;
46651;SDS011;32377;52.182;5.398;2022-09-12T03:48:24;62.83;;;40.13;;
46651;SDS011;32377;52.182;5.398;2022-09-12T03:50:50;64.88;;;40.22;;
46651;SDS011;32377;52.182;5.398;2022-09-12T03:53:15;61.28;;;40.13;;
46651;SDS011;32377;52.182;5.398;2022-09-12T03:55:41;61.05;;;40.15;;
46651;SDS011;32377;52.182;5.398;2022-09-12T03:58:06;62.10;;;39.78;;
46651;SDS011;32377;52.182;5.398;2022-09-12T04:00:32;63.83;;;41.33;;
46651;SDS011;32377;52.182;5.398;2022-09-12T04:02:57;64.72;;;40.97;;
46651;SDS011;32377;52.182;5.398;2022-09-12T04:05:23;63.53;;;40.40;;
46651;SDS011;32377;52.182;5.398;2022-09-12T04:07:49;65.40;;;42.00;;
46651;SDS011;32377;52.182;5.398;2022-09-12T04:10:15;66.10;;;41.67;;
46651;SDS011;32377;52.182;5.398;2022-09-12T04:12:41;63.42;;;41.13;;
46651;SDS011;32377;52.182;5.398;2022-09-12T04:15:06;63.63;;;41.75;;
46651;SDS011;32377;52.182;5.398;2022-09-12T04:17:33;63.47;;;41.50;;
46651;SDS011;32377;52.182;5.398;2022-09-12T04:19:59;68.80;;;42.78;;
46651;SDS011;32377;52.182;5.398;2022-09-12T04:22:25;65.88;;;42.15;;
46651;SDS011;32377;52.182;5.398;2022-09-12T04:24:50;66.70;;;42.35;;
46651;SDS011;32377;52.182;5.398;2022-09-12T04:27:16;68.95;;;43.00;;
46651;SDS011;32377;52.182;5.398;2022-09-12T04:29:42;67.63;;;42.75;;
46651;SDS011;32377;52.182;5.398;2022-09-12T04:32:07;66.20;;;42.53;;
46651;SDS011;32377;52.182;5.398;2022-09-12T04:34:33;66.53;;;41.28;;
46651;SDS011;32377;52.182;5.398;2022-09-12T04:36:59;71.20;;;43.50;;
46651;SDS011;32377;52.182;5.398;2022-09-12T04:39:25;69.80;;;42.92;;
46651;SDS011;32377;52.182;5.398;2022-09-12T04:41:50;68.32;;;43.80;;
46651;SDS011;32377;52.182;5.398;2022-09-12T04:44:16;64.30;;;42.45;;
46651;SDS011;32377;52.182;5.398;2022-09-12T04:46:43;67.25;;;42.92;;
46651;SDS011;32377;52.182;5.398;2022-09-12T04:49:11;65.00;;;42.88;;
46651;SDS011;32377;52.182;5.398;2022-09-12T04:51:39;65.28;;;42.95;;
46651;SDS011;32377;52.182;5.398;2022-09-12T04:54:10;73.07;;;42.47;;
46651;SDS011;32377;52.182;5.398;2022-09-12T04:56:39;67.90;;;41.25;;
46651;SDS011;32377;52.182;5.398;2022-09-12T04:59:06;65.43;;;42.72;;
46651;SDS011;32377;52.182;5.398;2022-09-12T05:01:33;66.15;;;40.28;;
46651;SDS011;32377;52.182;5.398;2022-09-12T05:03:59;65.20;;;40.08;;
46651;SDS011;32377;52.182;5.398;2022-09-12T05:06:35;61.65;;;38.92;;
46651;SDS011;32377;52.182;5.398;2022-09-12T05:09:03;64.28;;;41.65;;
46651;SDS011;32377;52.182;5.398;2022-09-12T05:11:31;65.30;;;41.42;;
46651;SDS011;32377;52.182;5.398;2022-09-12T05:14:02;63.97;;;38.80;;
46651;SDS011;32377;52.182;5.398;2022-09-12T05:16:27;65.50;;;41.20;;
46651;SDS011;32377;52.182;5.398;2022-09-12T05:18:55;67.00;;;40.22;;
46651;SDS011;32377;52.182;5.398;2022-09-12T05:21:21;64.88;;;40.50;;
46651;SDS011;32377;52.182;5.398;2022-09-12T05:23:49;63.58;;;39.22;;
46651;SDS011;32377;52.182;5.398;2022-09-12T05:26:20;63.20;;;38.50;;
46651;SDS011;32377;52.182;5.398;2022-09-12T05:28:47;63.55;;;38.95;;
46651;SDS011;32377;52.182;5.398;2022-09-12T05:33:45;61.70;;;39.53;;
46651;SDS011;32377;52.182;5.398;2022-09-12T05:36:13;69.32;;;38.92;;
46651;SDS011;32377;52.182;5.398;2022-09-12T05:38:41;62.72;;;40.15;;
46651;SDS011;32377;52.182;5.398;2022-09-12T05:41:08;64.57;;;39.13;;
46651;SDS011;32377;52.182;5.398;2022-09-12T05:43:37;65.00;;;40.42;;
46651;SDS011;32377;52.182;5.398;2022-09-12T05:46:06;71.00;;;40.08;;
46651;SDS011;32377;52.182;5.398;2022-09-12T05:48:34;67.25;;;39.78;;
46651;SDS011;32377;52.182;5.398;2022-09-12T05:51:04;65.00;;;39.60;;
46651;SDS011;32377;52.182;5.398;2022-09-12T05:53:33;67.40;;;39.42;;
46651;SDS011;32377;52.182;5.398;2022-09-12T05:56:10;71.03;;;40.92;;
46651;SDS011;32377;52.182;5.398;2022-09-12T05:58:37;69.80;;;41.88;;
46651;SDS011;32377;52.182;5.398;2022-09-12T06:01:09;66.20;;;41.45;;
46651;SDS011;32377;52.182;5.398;2022-09-12T06:03:44;66.38;;;42.28;;
46651;SDS011;32377;52.182;5.398;2022-09-12T06:06:11;71.82;;;42.72;;
46651;SDS011;32377;52.182;5.398;2022-09-12T06:08:38;70.63;;;43.40;;
46651;SDS011;32377;52.182;5.398;2022-09-12T06:11:05;71.60;;;42.97;;
46651;SDS011;32377;52.182;5.398;2022-09-12T06:13:32;70.32;;;42.25;;
46651;SDS011;32377;52.182;5.398;2022-09-12T06:16:05;79.75;;;44.25;;
46651;SDS011;32377;52.182;5.398;2022-09-12T06:18:33;77.82;;;44.78;;
46651;SDS011;32377;52.182;5.398;2022-09-12T06:23:28;79.13;;;44.63;;
46651;SDS011;32377;52.182;5.398;2022-09-12T06:25:54;75.88;;;41.92;;
46651;SDS011;32377;52.182;5.398;2022-09-12T06:28:20;85.53;;;45.22;;
46651;SDS011;32377;52.182;5.398;2022-09-12T06:30:45;72.07;;;42.78;;
46651;SDS011;32377;52.182;5.398;2022-09-12T06:33:11;71.50;;;43.22;;
46651;SDS011;32377;52.182;5.398;2022-09-12T06:35:37;77.00;;;45.28;;
46651;SDS011;32377;52.182;5.398;2022-09-12T06:38:03;80.10;;;44.58;;
46651;SDS011;32377;52.182;5.398;2022-09-12T06:40:29;85.43;;;45.72;;
46651;SDS011;32377;52.182;5.398;2022-09-12T06:42:55;76.55;;;43.80;;
46651;SDS011;32377;52.182;5.398;2022-09-12T06:45:21;82.93;;;47.15;;
46651;SDS011;32377;52.182;5.398;2022-09-12T06:47:47;85.45;;;47.60;;
46651;SDS011;32377;52.182;5.398;2022-09-12T06:50:12;79.75;;;45.60;;
46651;SDS011;32377;52.182;5.398;2022-09-12T06:52:38;79.50;;;46.05;;
46651;SDS011;32377;52.182;5.398;2022-09-12T06:55:04;78.93;;;45.35;;
46651;SDS011;32377;52.182;5.398;2022-09-12T06:57:30;83.70;;;47.78;;
46651;SDS011;32377;52.182;5.398;2022-09-12T06:59:56;83.47;;;46.67;;
46651;SDS011;32377;52.182;5.398;2022-09-12T07:02:22;77.32;;;44.92;;
46651;SDS011;32377;52.182;5.398;2022-09-12T07:04:49;79.93;;;46.83;;
46651;SDS011;32377;52.182;5.398;2022-09-12T07:07:15;78.20;;;46.88;;
46651;SDS011;32377;52.182;5.398;2022-09-12T07:09:41;82.88;;;45.10;;
46651;SDS011;32377;52.182;5.398;2022-09-12T07:12:07;75.78;;;44.38;;
46651;SDS011;32377;52.182;5.398;2022-09-12T07:14:32;73.80;;;42.47;;
46651;SDS011;32377;52.182;5.398;2022-09-12T07:16:58;73.78;;;44.95;;
46651;SDS011;32377;52.182;5.398;2022-09-12T07:19:23;72.43;;;43.42;;
46651;SDS011;32377;52.182;5.398;2022-09-12T07:21:49;79.05;;;44.63;;
46651;SDS011;32377;52.182;5.398;2022-09-12T07:24:14;70.85;;;39.95;;
46651;SDS011;32377;52.182;5.398;2022-09-12T07:26:40;76.15;;;44.28;;
46651;SDS011;32377;52.182;5.398;2022-09-12T07:29:06;71.07;;;42.30;;
46651;SDS011;32377;52.182;5.398;2022-09-12T07:31:36;63.55;;;42.08;;
46651;SDS011;32377;52.182;5.398;2022-09-12T07:34:05;64.13;;;40.30;;
46651;SDS011;32377;52.182;5.398;2022-09-12T07:36:30;63.38;;;39.45;;
46651;SDS011;32377;52.182;5.398;2022-09-12T07:38:56;64.80;;;41.28;;
46651;SDS011;32377;52.182;5.398;2022-09-12T07:41:25;67.97;;;41.40;;
46651;SDS011;32377;52.182;5.398;2022-09-12T07:43:57;61.58;;;39.85;;
46651;SDS011;32377;52.182;5.398;2022-09-12T07:46:24;65.05;;;38.83;;
46651;SDS011;32377;52.182;5.398;2022-09-12T07:48:51;65.35;;;39.38;;
46651;SDS011;32377;52.182;5.398;2022-09-12T07:51:18;65.80;;;39.88;;
46651;SDS011;32377;52.182;5.398;2022-09-12T07:53:43;63.53;;;37.72;;
46651;SDS011;32377;52.182;5.398;2022-09-12T07:56:10;58.17;;;37.42;;
46651;SDS011;32377;52.182;5.398;2022-09-12T07:58:37;61.17;;;37.70;;
46651;SDS011;32377;52.182;5.398;2022-09-12T08:01:08;60.25;;;38.08;;
46651;SDS011;32377;52.182;5.398;2022-09-12T08:03:42;62.05;;;37.70;;
46651;SDS011;32377;52.182;5.398;2022-09-12T08:06:09;60.90;;;37.45;;
46651;SDS011;32377;52.182;5.398;2022-09-12T08:08:38;59.33;;;37.00;;
46651;SDS011;32377;52.182;5.398;2022-09-12T08:11:05;55.72;;;36.00;;
46651;SDS011;32377;52.182;5.398;2022-09-12T08:13:33;57.53;;;35.35;;
46651;SDS011;32377;52.182;5.398;2022-09-12T08:16:01;54.90;;;34.90;;
46651;SDS011;32377;52.182;5.398;2022-09-12T08:18:30;53.38;;;34.70;;
46651;SDS011;32377;52.182;5.398;2022-09-12T08:21:00;51.40;;;33.50;;
46651;SDS011;32377;52.182;5.398;2022-09-12T08:23:27;51.97;;;34.38;;
46651;SDS011;32377;52.182;5.398;2022-09-12T08:25:56;53.83;;;34.00;;
46651;SDS011;32377;52.182;5.398;2022-09-12T08:28:24;52.38;;;33.38;;
46651;SDS011;32377;52.182;5.398;2022-09-12T08:30:50;51.42;;;31.92;;
46651;SDS011;32377;52.182;5.398;2022-09-12T08:33:16;48.55;;;31.80;;
46651;SDS011;32377;52.182;5.398;2022-09-12T08:35:42;50.83;;;32.83;;
46651;SDS011;32377;52.182;5.398;2022-09-12T08:38:07;49.67;;;31.33;;
46651;SDS011;32377;52.182;5.398;2022-09-12T08:40:37;45.58;;;31.27;;
46651;SDS011;32377;52.182;5.398;2022-09-12T08:46:28;44.65;;;29.75;;
46651;SDS011;32377;52.182;5.398;2022-09-12T08:49:31;42.60;;;29.27;;
46651;SDS011;32377;52.182;5.398;2022-09-12T08:52:11;45.35;;;29.60;;
46651;SDS011;32377;52.182;5.398;2022-09-12T08:54:41;40.92;;;26.95;;
46651;SDS011;32377;52.182;5.398;2022-09-12T08:57:09;43.50;;;27.52;;
46651;SDS011;32377;52.182;5.398;2022-09-12T08:59:40;42.28;;;27.70;;
46651;SDS011;32377;52.182;5.398;2022-09-12T09:02:52;38.08;;;27.42;;
46651;SDS011;32377;52.182;5.398;2022-09-12T09:05:12;39.42;;;25.55;;
46651;SDS011;32377;52.182;5.398;2022-09-12T09:16:36;32.95;;;23.83;;
46651;SDS011;32377;52.182;5.398;2022-09-12T09:19:05;35.63;;;23.75;;
46651;SDS011;32377;52.182;5.398;2022-09-12T09:24:38;31.33;;;21.55;;
46651;SDS011;32377;52.182;5.398;2022-09-12T09:27:11;32.63;;;22.13;;
46651;SDS011;32377;52.182;5.398;2022-09-12T09:29:39;32.28;;;21.90;;
46651;SDS011;32377;52.182;5.398;2022-09-12T09:32:12;32.33;;;21.92;;
46651;SDS011;32377;52.182;5.398;2022-09-12T09:34:42;34.33;;;20.60;;
46651;SDS011;32377;52.182;5.398;2022-09-12T09:37:18;28.67;;;21.20;;
46651;SDS011;32377;52.182;5.398;2022-09-12T09:42:47;29.95;;;21.33;;
46651;SDS011;32377;52.182;5.398;2022-09-12T09:45:27;29.02;;;19.92;;
46651;SDS011;32377;52.182;5.398;2022-09-12T09:47:57;27.58;;;20.02;;
46651;SDS011;32377;52.182;5.398;2022-09-12T09:50:28;29.30;;;20.67;;
46651;SDS011;32377;52.182;5.398;2022-09-12T09:52:53;27.65;;;19.58;;
46651;SDS011;32377;52.182;5.398;2022-09-12T09:55:25;28.52;;;19.58;;
46651;SDS011;32377;52.182;5.398;2022-09-12T09:57:56;30.60;;;20.70;;
46651;SDS011;32377;52.182;5.398;2022-09-12T10:00:23;26.33;;;17.45;;
46651;SDS011;32377;52.182;5.398;2022-09-12T10:03:00;24.75;;;18.10;;
46651;SDS011;32377;52.182;5.398;2022-09-12T10:05:46;26.73;;;19.05;;
46651;SDS011;32377;52.182;5.398;2022-09-12T10:08:31;20.60;;;15.32;;
46651;SDS011;32377;52.182;5.398;2022-09-12T10:11:06;24.67;;;16.55;;
46651;SDS011;32377;52.182;5.398;2022-09-12T10:16:18;18.95;;;14.85;;
46651;SDS011;32377;52.182;5.398;2022-09-12T10:18:46;20.30;;;13.45;;
46651;SDS011;32377;52.182;5.398;2022-09-12T10:21:26;20.00;;;13.68;;
46651;SDS011;32377;52.182;5.398;2022-09-12T10:23:57;23.38;;;14.45;;
46651;SDS011;32377;52.182;5.398;2022-09-12T10:26:29;20.92;;;14.48;;
46651;SDS011;32377;52.182;5.398;2022-09-12T10:28:57;19.73;;;13.18;;
46651;SDS011;32377;52.182;5.398;2022-09-12T10:31:34;19.17;;;13.48;;
46651;SDS011;32377;52.182;5.398;2022-09-12T10:34:13;19.48;;;14.32;;
46651;SDS011;32377;52.182;5.398;2022-09-12T10:39:24;17.33;;;12.27;;
46651;SDS011;32377;52.182;5.398;2022-09-12T10:41:50;17.85;;;12.80;;
46651;SDS011;32377;52.182;5.398;2022-09-12T10:44:17;19.05;;;12.80;;
46651;SDS011;32377;52.182;5.398;2022-09-12T10:46:51;17.25;;;11.45;;
46651;SDS011;32377;52.182;5.398;2022-09-12T10:49:19;17.15;;;12.00;;
46651;SDS011;32377;52.182;5.398;2022-09-12T10:51:47;17.75;;;12.32;;
46651;SDS011;32377;52.182;5.398;2022-09-12T10:54:15;19.08;;;13.80;;
46651;SDS011;32377;52.182;5.398;2022-09-12T10:56:46;16.17;;;11.65;;
46651;SDS011;32377;52.182;5.398;2022-09-12T11:02:50;19.45;;;13.95;;
46651;SDS011;32377;52.182;5.398;2022-09-12T11:05:44;19.52;;;13.70;;
46651;SDS011;32377;52.182;5.398;2022-09-12T11:11:28;17.25;;;11.77;;
46651;SDS011;32377;52.182;5.398;2022-09-12T11:17:00;13.20;;;10.38;;
46651;SDS011;32377;52.182;5.398;2022-09-12T11:33:43;9.95;;;7.07;;
46651;SDS011;32377;52.182;5.398;2022-09-12T11:36:14;9.68;;;7.10;;
46651;SDS011;32377;52.182;5.398;2022-09-12T11:41:37;11.00;;;6.65;;
46651;SDS011;32377;52.182;5.398;2022-09-12T11:44:11;8.00;;;6.35;;
46651;SDS011;32377;52.182;5.398;2022-09-12T11:46:39;8.15;;;5.82;;
46651;SDS011;32377;52.182;5.398;2022-09-12T11:59:51;7.40;;;4.78;;
46651;SDS011;32377;52.182;5.398;2022-09-12T12:02:26;6.63;;;5.45;;
46651;SDS011;32377;52.182;5.398;2022-09-12T12:13:01;4.90;;;4.25;;
46651;SDS011;32377;52.182;5.398;2022-09-12T12:15:31;6.65;;;4.60;;
46651;SDS011;32377;52.182;5.398;2022-09-12T12:18:01;6.78;;;4.90;;
46651;SDS011;32377;52.182;5.398;2022-09-12T12:20:32;6.70;;;5.05;;
46651;SDS011;32377;52.182;5.398;2022-09-12T12:22:58;5.90;;;4.65;;
46651;SDS011;32377;52.182;5.398;2022-09-12T12:25:37;7.05;;;4.15;;
46651;SDS011;32377;52.182;5.398;2022-09-12T12:28:04;8.38;;;4.20;;
46651;SDS011;32377;52.182;5.398;2022-09-12T12:33:00;5.00;;;3.92;;
46651;SDS011;32377;52.182;5.398;2022-09-12T12:46:13;6.53;;;4.72;;
46651;SDS011;32377;52.182;5.398;2022-09-12T12:49:22;5.75;;;4.47;;
46651;SDS011;32377;52.182;5.398;2022-09-12T12:59:43;6.53;;;4.43;;
46651;SDS011;32377;52.182;5.398;2022-09-12T13:02:23;7.53;;;4.43;;
46651;SDS011;32377;52.182;5.398;2022-09-12T13:04:52;6.38;;;3.97;;
46651;SDS011;32377;52.182;5.398;2022-09-12T13:07:26;6.55;;;4.90;;
46651;SDS011;32377;52.182;5.398;2022-09-12T13:09:55;9.48;;;3.42;;
46651;SDS011;32377;52.182;5.398;2022-09-12T13:12:24;5.72;;;4.07;;
46651;SDS011;32377;52.182;5.398;2022-09-12T13:15:02;4.60;;;4.15;;
46651;SDS011;32377;52.182;5.398;2022-09-12T13:17:48;4.55;;;3.78;;
46651;SDS011;32377;52.182;5.398;2022-09-12T13:20:16;6.65;;;3.97;;
46651;SDS011;32377;52.182;5.398;2022-09-12T13:22:46;5.72;;;4.55;;
46651;SDS011;32377;52.182;5.398;2022-09-12T13:25:17;5.07;;;4.32;;
46651;SDS011;32377;52.182;5.398;2022-09-12T13:27:58;4.70;;;4.15;;
46651;SDS011;32377;52.182;5.398;2022-09-12T13:30:28;4.97;;;3.40;;
46651;SDS011;32377;52.182;5.398;2022-09-12T13:32:56;6.10;;;3.83;;
46651;SDS011;32377;52.182;5.398;2022-09-12T13:36:00;17.20;;;4.97;;
46651;SDS011;32377;52.182;5.398;2022-09-12T13:38:25;5.00;;;4.15;;
46651;SDS011;32377;52.182;5.398;2022-09-12T13:43:44;7.70;;;4.00;;
46651;SDS011;32377;52.182;5.398;2022-09-12T13:46:15;4.80;;;4.20;;
46651;SDS011;32377;52.182;5.398;2022-09-12T13:48:46;7.22;;;3.83;;
46651;SDS011;32377;52.182;5.398;2022-09-12T13:51:22;5.10;;;4.07;;
46651;SDS011;32377;52.182;5.398;2022-09-12T13:53:49;3.78;;;3.42;;
46651;SDS011;32377;52.182;5.398;2022-09-12T13:56:17;4.20;;;3.30;;
46651;SDS011;32377;52.182;5.398;2022-09-12T13:58:54;5.38;;;3.45;;
46651;SDS011;32377;52.182;5.398;2022-09-12T14:01:41;4.40;;;3.70;;
46651;SDS011;32377;52.182;5.398;2022-09-12T14:07:02;6.25;;;4.10;;
46651;SDS011;32377;52.182;5.398;2022-09-12T14:12:27;4.60;;;3.83;;
46651;SDS011;32377;52.182;5.398;2022-09-12T14:15:01;6.32;;;3.58;;
46651;SDS011;32377;52.182;5.398;2022-09-12T14:17:31;5.65;;;3.65;;
46651;SDS011;32377;52.182;5.398;2022-09-12T14:19:59;6.38;;;4.18;;
46651;SDS011;32377;52.182;5.398;2022-09-12T14:22:29;6.00;;;4.15;;
46651;SDS011;32377;52.182;5.398;2022-09-12T14:24:55;5.13;;;4.40;;
46651;SDS011;32377;52.182;5.398;2022-09-12T14:27:24;7.03;;;4.22;;
46651;SDS011;32377;52.182;5.398;2022-09-12T14:30:07;9.68;;;3.92;;
46651;SDS011;32377;52.182;5.398;2022-09-12T14:33:00;4.32;;;3.85;;
46651;SDS011;32377;52.182;5.398;2022-09-12T14:35:27;4.78;;;3.65;;
46651;SDS011;32377;52.182;5.398;2022-09-12T14:37:54;4.85;;;4.30;;
46651;SDS011;32377;52.182;5.398;2022-09-12T14:40:21;7.22;;;4.35;;
46651;SDS011;32377;52.182;5.398;2022-09-12T14:42:48;4.18;;;3.70;;
46651;SDS011;32377;52.182;5.398;2022-09-12T14:45:16;5.57;;;3.90;;
46651;SDS011;32377;52.182;5.398;2022-09-12T14:47:49;4.63;;;3.60;;
46651;SDS011;32377;52.182;5.398;2022-09-12T14:50:23;5.93;;;3.70;;
46651;SDS011;32377;52.182;5.398;2022-09-12T14:55:30;4.75;;;3.95;;
46651;SDS011;32377;52.182;5.398;2022-09-12T14:58:14;4.93;;;3.83;;
46651;SDS011;32377;52.182;5.398;2022-09-12T15:03:24;3.90;;;3.50;;
46651;SDS011;32377;52.182;5.398;2022-09-12T15:05:54;4.22;;;3.22;;
46651;SDS011;32377;52.182;5.398;2022-09-12T15:08:19;3.88;;;2.92;;
46651;SDS011;32377;52.182;5.398;2022-09-12T15:10:45;4.63;;;3.50;;
46651;SDS011;32377;52.182;5.398;2022-09-12T15:13:15;8.32;;;3.72;;
46651;SDS011;32377;52.182;5.398;2022-09-12T15:15:47;5.65;;;3.90;;
46651;SDS011;32377;52.182;5.398;2022-09-12T15:18:14;6.35;;;3.83;;
46651;SDS011;32377;52.182;5.398;2022-09-12T15:20:41;3.45;;;3.15;;
46651;SDS011;32377;52.182;5.398;2022-09-12T15:23:13;6.28;;;4.60;;
46651;SDS011;32377;52.182;5.398;2022-09-12T15:25:44;6.50;;;4.20;;
46651;SDS011;32377;52.182;5.398;2022-09-12T15:28:17;4.85;;;3.85;;
46651;SDS011;32377;52.182;5.398;2022-09-12T15:30:45;4.45;;;3.95;;
46651;SDS011;32377;52.182;5.398;2022-09-12T15:33:13;5.82;;;4.10;;
46651;SDS011;32377;52.182;5.398;2022-09-12T15:35:39;4.43;;;4.00;;
46651;SDS011;32377;52.182;5.398;2022-09-12T15:38:05;4.60;;;3.63;;
46651;SDS011;32377;52.182;5.398;2022-09-12T15:40:30;4.47;;;3.50;;
46651;SDS011;32377;52.182;5.398;2022-09-12T15:42:56;4.88;;;3.42;;
46651;SDS011;32377;52.182;5.398;2022-09-12T15:45:22;5.15;;;3.58;;
46651;SDS011;32377;52.182;5.398;2022-09-12T15:47:54;5.60;;;3.50;;
46651;SDS011;32377;52.182;5.398;2022-09-12T15:50:21;4.47;;;3.85;;
46651;SDS011;32377;52.182;5.398;2022-09-12T15:52:46;5.35;;;3.83;;
46651;SDS011;32377;52.182;5.398;2022-09-12T15:55:16;4.13;;;3.28;;
46651;SDS011;32377;52.182;5.398;2022-09-12T15:57:47;3.50;;;3.20;;
46651;SDS011;32377;52.182;5.398;2022-09-12T16:00:13;6.60;;;3.83;;
46651;SDS011;32377;52.182;5.398;2022-09-12T16:02:41;6.22;;;3.85;;
46651;SDS011;32377;52.182;5.398;2022-09-12T16:05:10;4.80;;;3.38;;
46651;SDS011;32377;52.182;5.398;2022-09-12T16:07:40;3.90;;;3.53;;
46651;SDS011;32377;52.182;5.398;2022-09-12T16:10:06;4.10;;;3.22;;
46651;SDS011;32377;52.182;5.398;2022-09-12T16:12:32;5.53;;;3.65;;
46651;SDS011;32377;52.182;5.398;2022-09-12T16:14:58;5.55;;;3.35;;
46651;SDS011;32377;52.182;5.398;2022-09-12T16:17:24;4.13;;;3.78;;
46651;SDS011;32377;52.182;5.398;2022-09-12T16:19:49;5.03;;;4.20;;
46651;SDS011;32377;52.182;5.398;2022-09-12T16:22:15;6.80;;;3.47;;
46651;SDS011;32377;52.182;5.398;2022-09-12T16:24:41;3.85;;;3.45;;
46651;SDS011;32377;52.182;5.398;2022-09-12T16:27:06;5.15;;;3.47;;
46651;SDS011;32377;52.182;5.398;2022-09-12T16:29:32;4.53;;;3.50;;
46651;SDS011;32377;52.182;5.398;2022-09-12T16:31:57;4.15;;;3.42;;
46651;SDS011;32377;52.182;5.398;2022-09-12T16:34:23;6.93;;;3.70;;
46651;SDS011;32377;52.182;5.398;2022-09-12T16:36:48;8.40;;;3.35;;
46651;SDS011;32377;52.182;5.398;2022-09-12T16:39:14;3.50;;;3.20;;
46651;SDS011;32377;52.182;5.398;2022-09-12T16:41:40;5.43;;;3.50;;
46651;SDS011;32377;52.182;5.398;2022-09-12T16:44:06;3.15;;;2.85;;
46651;SDS011;32377;52.182;5.398;2022-09-12T16:46:32;3.97;;;3.08;;
46651;SDS011;32377;52.182;5.398;2022-09-12T16:48:58;3.28;;;2.70;;
46651;SDS011;32377;52.182;5.398;2022-09-12T16:51:25;4.18;;;3.03;;
46651;SDS011;32377;52.182;5.398;2022-09-12T16:53:56;3.78;;;2.97;;
46651;SDS011;32377;52.182;5.398;2022-09-12T16:56:22;4.70;;;2.83;;
46651;SDS011;32377;52.182;5.398;2022-09-12T16:58:48;3.35;;;2.97;;
46651;SDS011;32377;52.182;5.398;2022-09-12T17:01:15;3.35;;;2.75;;
46651;SDS011;32377;52.182;5.398;2022-09-12T17:03:42;6.30;;;2.95;;
46651;SDS011;32377;52.182;5.398;2022-09-12T17:06:09;6.90;;;2.53;;
46651;SDS011;32377;52.182;5.398;2022-09-12T17:08:37;3.70;;;2.88;;
46651;SDS011;32377;52.182;5.398;2022-09-12T17:11:05;5.57;;;2.90;;
46651;SDS011;32377;52.182;5.398;2022-09-12T17:13:35;3.35;;;2.75;;
46651;SDS011;32377;52.182;5.398;2022-09-12T17:16:10;3.72;;;2.92;;